Valdez, AK

10:28 PM AKDT on August 19, 2014 (GMT -0800)
Cordova-Smith | Change Station
CLOSE
Current Station
Airport
Location: Cordova,
Elevation: 43 ft
Nearby Weather Stations

Elev 43 ft 60.49 °N, 145.45 °W | Updated 35 minutes ago

Mostly Cloudy
Mostly Cloudy
53 °F
Feels Like 53 °F
N
0
Wind Variable Wind from North

Today
High -- | Low -- °F
--% Chance of Precip.
Yesterday
High -- | Low -- °F
Precip. -- in
6:03 AM 9:30 PM
Waning Crescent, 24% visible
Pressure 30.02 in
Visibility 10.0 miles
Clouds Scattered Clouds 800 ft
Mostly Cloudy 1500 ft
Mostly Cloudy 3000 ft
Dew Point 50 °F
Humidity 89%
Rainfall 0.00 in
Snow Depth 0 in
UV 0 out of 12
Pollen Not available.
Air Quality Not available.
Flu Activity Not available.
METAR PACV 200553Z 00000KT 10SM SCT008 BKN015 BKN030 12/10 A3002 RMK AO2 SLP166 T01170100 10144 20117 53001

More Conditions Fewer Conditions

Pressure 30.02 in
Visibility 10.0 miles
Clouds Scattered Clouds 800 ft
Mostly Cloudy 1500 ft
Mostly Cloudy 3000 ft
Dew Point 50 °F
Humidity 89%
Rainfall 0.00 in
Snow Depth 0 in
UV 0 out of 12
Pollen Not available.
Air Quality Not available.
Flu Activity Not available.
METAR PACV 200553Z 00000KT 10SM SCT008 BKN015 BKN030 12/10 A3002 RMK AO2 SLP166 T01170100 10144 20117 53001

More Conditions Fewer Conditions

10-Day Weather Forecast

Almanac

Astronomy

Aug. 19, 2014 Rise Set
Actual Time 6:03 AM AKDT 9:30 PM AKDT
Civil Twilight 5:10 AM AKDT 10:22 PM AKDT
Nautical Twilight 3:53 AM AKDT 11:37 PM AKDT
Astronomical Twilight 2:20 AM AKDT 1:14 AM AKDT
Moon 12:30 AM AKDT (8/19) 6:08 PM AKDT (8/19)
Length of Visible Light 17h 11m
Length of Day
15h 27m
Tomorrow will be 5m 36s shorter.
Waning Crescent, 24% of the Moon is Illuminated
Aug 20
Waning Crescent
Aug 25
New
Sep 2
First Quarter
Sep 8
Full
Sep 15
Last Quarter

Yesterday's Extremes

State Highs State Lows

Community

WunderPhotos

Upload Photos

1,745,592 photos uploaded!

Nearby

Snow Depth

Station Depth Elevation
Upper Tsaina River 0 in 1750 ft
Moraine 0 in 2100 ft
Turnagain Pass 1 in 1880 ft
Grandview 0 in 1100 ft
Indian Pass 1 in 2300 ft

Earthquake Activity

City Distance Mag. Time & Date
No recent earthquake activity has been reported nearby.
Minimum magnitude displayed is 2.5.

Coastal Water Temperatures

Place Temperature
No Stations Reporting

Nearby Weather Stations